Estación Meteorológica Peña el Pijo (Robertgarden) [ 12/14/19 08:40:18 CET ]

Fecha Hora Presion(HPa) Temp (°C) Humedad % Rocio (°C) Viento ( m/s) Direccion Lluvia 1Hora(mm) Lluvia 24H(mm) LLuvia Total(mm)
2019-Nov-18 01:01:58 997.900 7.8 86 5.6       3.10 30.56
2019-Nov-18 02:06:12 997.400 7.2 87 5.2       3.10 30.56
2019-Nov-18 03:02:26 997.600 6.7 88 4.9     1.03 4.14 31.59
2019-Nov-18 04:02:21 998.200 4.9 88 3.1       4.14 31.59
2019-Nov-18 05:05:14 997.700 4.8 88 3.0       4.14 31.59
2019-Nov-18 06:01:48 998.300 3.9 88 2.1       4.14 31.59
2019-Nov-18 07:01:49 999.200 3.1 88 1.3       4.14 31.59
2019-Nov-18 08:01:43 998.900 2.9 88 1.1       4.14 31.59
2019-Nov-18 09:01:53 999.200 3.1 87 1.1       4.14 31.59
2019-Nov-18 10:01:46 1000.600 4.9 86 2.7       4.14 31.59
2019-Nov-18 11:01:50 1001.600 5.1 82 2.2       4.14 31.59
2019-Nov-18 12:01:42 1001.200 7.9 74 3.6       4.14 31.59
2019-Nov-18 13:01:57 1001.300 8.9 64 2.4       4.14 31.59
2019-Nov-18 14:02:05 1001.600 8.6 61 1.5       4.14 31.59
2019-Nov-18 15:01:43 1001.600 8.9 59 1.3       4.14 31.59
2019-Nov-18 16:01:49 1002.100 8.3 58 0.5       4.14 31.59
2019-Nov-18 17:01:51 1002.800 6.8 61 -0.2       4.14 31.59
2019-Nov-18 18:02:03 1003.600 5.9 63 -0.6       4.14 31.59
2019-Nov-18 19:01:54 1004.000 4.9 67 -0.7       4.14 31.59
2019-Nov-18 20:01:46 1004.600 4.1 72 -0.5       4.14 31.59
2019-Nov-18 21:01:47 1004.700 2.6 75 -1.4       4.14 31.59
2019-Nov-18 22:01:36 1005.300 2.2 78 -1.3       3.10 31.59
2019-Nov-18 23:01:53 1005.900 1.3 78 -2.2       1.03 31.59

Temperatura Máxima:    Temperatura Mínima:
Presión Máxima:1005.900 Hpa    Presión Mínima:997.400 Hpa


Volver